Riverton, Indiana
Current Conditions -  °F | °C
As of 2:15 AM on Sunday 28 Dec 2014 (Local Time) from KRSV Reporting Station
Overcast Overcast  
Wind Chill: 26°   Ceiling: 1600
Heat Index: 34°   Visibility: 10mi
Dew Point: 31°   Wind: 10mph
Humidity: 89%   Direction: 340°NNW
Pressure: 30.17"   Gusts: NA
Location:  39.0138°N, 87.523°W
Report Text: KRSV 280715Z AUTO 34009KT 10SM OVC016 01/00 A3017 RMK AO2 T00121004
Loading
Personal Weather Stations






























Interactive Weather Map New forecast layout! Learn more

10-Day Weather Forecast

Advertisements
Track Severe Weather on mobile